createdAt,value
2017-06-18T00:00:44.645Z,71.20
2017-06-18T00:03:14.281Z,70.60
2017-06-18T00:05:44.073Z,70.60
2017-06-18T00:08:15.012Z,72.60
2017-06-18T00:10:44.746Z,72.20
2017-06-18T00:13:15.409Z,72.50
2017-06-18T00:15:45.249Z,72.20
2017-06-18T00:18:14.985Z,72.60
2017-06-18T00:20:44.990Z,72.40
2017-06-18T00:23:14.977Z,72.50
2017-06-18T00:25:45.800Z,72.50
2017-06-18T00:28:15.819Z,72.90
2017-06-18T00:30:45.777Z,72.90
2017-06-18T00:33:16.105Z,72.80
2017-06-18T00:35:46.009Z,72.10
2017-06-18T00:38:15.681Z,72.70
2017-06-18T00:40:46.257Z,73.10
2017-06-18T00:43:16.689Z,73.00
2017-06-18T00:45:46.906Z,72.10
2017-06-18T00:48:16.569Z,71.70
2017-06-18T00:50:46.604Z,71.40
2017-06-18T00:53:16.543Z,72.70
2017-06-18T00:55:46.528Z,72.50
2017-06-18T00:58:16.174Z,72.20
2017-06-18T01:00:45.929Z,72.40
2017-06-18T01:03:15.911Z,72.80
2017-06-18T01:05:46.338Z,74.00
2017-06-18T01:08:16.478Z,74.20
2017-06-18T01:10:46.609Z,73.60
2017-06-18T01:13:17.099Z,76.00
2017-06-18T01:15:47.098Z,77.50
2017-06-18T01:18:17.411Z,78.70
2017-06-18T01:20:47.318Z,78.40
2017-06-18T01:23:16.815Z,77.30
2017-06-18T01:25:47.333Z,76.60
2017-06-18T01:28:16.969Z,77.20
2017-06-18T01:30:46.801Z,78.60
2017-06-18T01:33:16.962Z,78.20
2017-06-18T01:35:46.838Z,78.00
2017-06-18T01:38:16.636Z,78.00
2017-06-18T01:40:46.338Z,78.00
2017-06-18T01:43:16.213Z,77.90
2017-06-18T01:45:46.289Z,77.90
2017-06-18T01:48:16.597Z,78.30
2017-06-18T01:50:46.621Z,78.60
2017-06-18T01:53:16.159Z,78.20
2017-06-18T01:55:45.900Z,77.60
2017-06-18T01:58:15.844Z,78.90
2017-06-18T02:00:46.084Z,78.70
2017-06-18T02:03:16.004Z,78.50
2017-06-18T02:05:45.784Z,79.30
2017-06-18T02:08:15.709Z,79.90
2017-06-18T02:10:45.375Z,80.80
2017-06-18T02:13:15.037Z,80.10
2017-06-18T02:15:44.817Z,81.30
2017-06-18T02:18:16.089Z,82.00
2017-06-18T02:20:45.984Z,80.40
2017-06-18T02:23:15.628Z,79.70
2017-06-18T02:25:45.453Z,81.80
2017-06-18T02:28:15.385Z,85.50
2017-06-18T02:30:45.345Z,86.70
2017-06-18T02:33:15.374Z,86.70
2017-06-18T02:35:45.405Z,86.80
2017-06-18T02:38:15.165Z,85.80
2017-06-18T02:40:44.917Z,84.80
2017-06-18T02:43:14.841Z,84.10
2017-06-18T02:45:44.633Z,82.90
2017-06-18T02:48:14.866Z,83.30
2017-06-18T02:50:44.692Z,83.80
2017-06-18T02:53:15.180Z,84.60
2017-06-18T02:55:45.435Z,84.00
2017-06-18T02:58:15.372Z,84.40
2017-06-18T03:00:45.129Z,86.50
2017-06-18T03:03:14.825Z,86.50
2017-06-18T03:05:44.750Z,86.40
2017-06-18T03:08:14.392Z,86.40
2017-06-18T03:10:44.212Z,86.40
2017-06-18T03:13:13.983Z,85.80
2017-06-18T03:15:44.002Z,85.40
2017-06-18T03:18:13.833Z,84.50
2017-06-18T03:20:48.192Z,83.70
2017-06-18T03:23:22.482Z,83.90
2017-06-18T03:25:52.469Z,84.50
2017-06-18T03:28:22.120Z,83.60
2017-06-18T03:30:53.321Z,83.90
2017-06-18T03:33:22.977Z,83.80
2017-06-18T03:35:53.777Z,86.10
2017-06-18T03:38:23.444Z,86.10
2017-06-18T03:40:53.519Z,86.10
2017-06-18T03:43:23.249Z,87.10
2017-06-18T03:45:54.116Z,87.00
2017-06-18T03:48:24.513Z,87.00
2017-06-18T03:50:55.240Z,87.10
2017-06-18T03:53:25.873Z,87.30
2017-06-18T03:55:55.676Z,87.00
2017-06-18T03:58:25.722Z,86.70
2017-06-18T04:00:56.015Z,86.20
2017-06-18T04:03:26.032Z,86.30
2017-06-18T04:05:55.946Z,86.20
2017-06-18T04:08:26.980Z,85.10
2017-06-18T04:10:56.824Z,85.00
2017-06-18T04:13:26.472Z,84.50
2017-06-18T04:15:56.565Z,84.20
2017-06-18T04:18:26.841Z,85.20
2017-06-18T04:20:58.425Z,86.40
2017-06-18T04:23:28.601Z,85.80
2017-06-18T04:26:01.940Z,86.00
2017-06-18T04:28:31.709Z,85.80
2017-06-18T04:31:01.538Z,85.30
2017-06-18T04:33:31.190Z,85.20
2017-06-18T04:36:05.236Z,85.10
2017-06-18T04:38:34.884Z,85.10
2017-06-18T04:41:04.637Z,85.00
2017-06-18T04:43:34.693Z,84.90
2017-06-18T04:46:05.085Z,85.00
2017-06-18T04:48:34.884Z,85.30
2017-06-18T04:51:07.505Z,85.30
2017-06-18T04:53:37.981Z,85.20
2017-06-18T04:56:07.941Z,85.10
2017-06-18T04:58:37.640Z,85.10
2017-06-18T05:01:07.361Z,85.00
2017-06-18T05:03:37.749Z,85.00
2017-06-18T05:06:09.136Z,84.80
2017-06-18T05:08:38.788Z,84.80
2017-06-18T05:11:09.569Z,85.30
2017-06-18T05:13:40.833Z,85.40
2017-06-18T05:16:11.170Z,86.00
2017-06-18T05:18:41.200Z,86.20
2017-06-18T05:21:11.246Z,85.90
2017-06-18T05:23:41.208Z,85.90
2017-06-18T05:26:11.601Z,85.70
2017-06-18T05:28:42.548Z,85.30
2017-06-18T05:31:12.461Z,85.10
2017-06-18T05:33:42.101Z,85.50
2017-06-18T05:36:12.068Z,86.50
2017-06-18T05:38:41.696Z,86.50
2017-06-18T05:41:11.613Z,85.90
2017-06-18T05:43:41.737Z,85.80
2017-06-18T05:46:11.775Z,85.30
2017-06-18T05:48:41.417Z,84.10
2017-06-18T05:51:11.157Z,83.90
2017-06-18T05:53:40.813Z,83.30
2017-06-18T05:56:11.737Z,82.70
2017-06-18T05:58:41.741Z,81.80
2017-06-18T06:01:11.849Z,81.80
2017-06-18T06:03:41.481Z,81.00
2017-06-18T06:06:11.297Z,79.80
2017-06-18T06:08:40.932Z,79.40
2017-06-18T06:11:11.717Z,78.20
2017-06-18T06:13:41.866Z,78.20
2017-06-18T06:16:12.093Z,77.80
2017-06-18T06:18:41.756Z,77.00
2017-06-18T06:21:11.591Z,76.20
2017-06-18T06:23:41.476Z,75.50
2017-06-18T06:34:50.802Z,72.90
2017-06-18T06:37:20.611Z,71.30
2017-06-18T06:39:50.327Z,71.00
2017-06-18T06:42:20.567Z,71.20
2017-06-18T06:44:52.150Z,71.00
2017-06-18T06:47:21.890Z,69.70
2017-06-18T06:49:51.641Z,68.20
2017-06-18T06:52:23.010Z,68.70
2017-06-18T06:54:52.749Z,67.90
2017-06-18T06:57:22.509Z,67.10
2017-06-18T06:59:53.275Z,66.90
2017-06-18T07:02:30.810Z,66.50
2017-06-18T07:05:00.805Z,66.30
2017-06-18T07:09:52.737Z,66.10
2017-06-18T07:12:22.659Z,65.90
2017-06-18T07:14:59.416Z,65.40
2017-06-18T07:17:29.685Z,64.00
2017-06-18T07:19:59.813Z,62.10
2017-06-18T07:22:29.597Z,60.80
2017-06-18T07:24:59.516Z,59.20
2017-06-18T07:27:29.353Z,58.30
2017-06-18T07:29:59.141Z,58.80
2017-06-18T07:32:28.982Z,59.30
2017-06-18T07:34:58.660Z,58.70
2017-06-18T07:37:28.521Z,58.30
2017-06-18T07:39:58.926Z,56.50
2017-06-18T07:42:28.860Z,56.20
2017-06-18T07:44:59.239Z,57.00
2017-06-18T07:47:29.393Z,58.00
2017-06-18T07:49:59.327Z,58.10
2017-06-18T07:52:29.441Z,57.90
2017-06-18T07:54:59.073Z,57.90
2017-06-18T07:57:28.828Z,56.70
2017-06-18T07:59:58.765Z,56.70
2017-06-18T08:02:28.732Z,55.30
2017-06-18T08:04:58.395Z,56.20
2017-06-18T08:07:28.211Z,55.40
2017-06-18T08:09:58.013Z,54.20
2017-06-18T08:12:27.920Z,54.10
2017-06-18T08:14:57.573Z,53.90
2017-06-18T08:17:27.854Z,52.50
2017-06-18T08:19:57.484Z,52.20
2017-06-18T08:22:27.298Z,51.50
2017-06-18T08:24:58.234Z,50.50
2017-06-18T08:27:28.738Z,50.40
2017-06-18T08:29:58.380Z,51.00
2017-06-18T08:32:28.136Z,52.00
2017-06-18T08:34:57.788Z,51.30
2017-06-18T08:37:28.270Z,51.10
2017-06-18T08:39:59.966Z,51.20
2017-06-18T08:42:30.295Z,51.40
2017-06-18T08:45:00.105Z,50.40
2017-06-18T08:47:30.296Z,49.80
2017-06-18T08:50:00.355Z,49.80
2017-06-18T08:52:30.978Z,48.90
2017-06-18T08:55:00.643Z,47.60
2017-06-18T08:57:30.455Z,46.50
2017-06-18T09:00:00.093Z,49.10
2017-06-18T09:02:29.905Z,46.70
2017-06-18T09:04:59.658Z,46.80
2017-06-18T09:07:29.954Z,47.50
2017-06-18T09:09:59.606Z,47.30
2017-06-18T09:12:29.532Z,48.20
2017-06-18T09:14:59.629Z,47.20
2017-06-18T09:17:29.289Z,46.60
2017-06-18T09:19:59.317Z,46.00
2017-06-18T09:22:29.793Z,46.00
2017-06-18T09:24:59.487Z,45.90
2017-06-18T09:27:30.113Z,46.80
2017-06-18T09:29:59.745Z,48.70
2017-06-18T09:32:29.581Z,50.30
2017-06-18T09:34:59.263Z,50.40
2017-06-18T09:37:29.438Z,48.80
2017-06-18T09:39:59.305Z,46.80
2017-06-18T09:42:29.428Z,46.10
2017-06-18T09:44:59.327Z,44.90
2017-06-18T09:47:29.513Z,44.70
2017-06-18T09:49:59.320Z,45.20
2017-06-18T09:52:29.029Z,43.90
2017-06-18T09:54:58.728Z,44.00
2017-06-18T09:57:29.580Z,40.80
2017-06-18T09:59:59.561Z,40.30
2017-06-18T10:02:29.669Z,42.50
2017-06-18T10:04:59.576Z,41.90
2017-06-18T10:07:29.559Z,40.20
2017-06-18T10:10:00.489Z,40.90
2017-06-18T10:12:30.412Z,40.90
2017-06-18T10:15:00.064Z,42.10
2017-06-18T10:17:30.521Z,39.30
2017-06-18T10:20:00.477Z,38.70
2017-06-18T10:22:30.459Z,37.20
2017-06-18T10:25:00.098Z,36.20
2017-06-18T10:27:30.221Z,34.70
2017-06-18T10:29:59.861Z,32.60
2017-06-18T10:32:30.020Z,27.50
2017-06-18T10:34:59.942Z,27.30
2017-06-18T10:37:31.709Z,28.10
2017-06-18T10:40:03.812Z,26.00
2017-06-18T10:42:33.777Z,24.10
2017-06-18T10:45:05.147Z,21.20
2017-06-18T10:47:35.987Z,19.70
2017-06-18T10:50:07.257Z,19.60
2017-06-18T10:52:37.528Z,19.00
2017-06-18T10:55:07.585Z,20.20
2017-06-18T10:57:37.362Z,19.30
2017-06-18T11:00:07.688Z,19.10
2017-06-18T11:02:37.473Z,18.70
2017-06-18T11:05:23.201Z,18.30
2017-06-18T11:07:54.213Z,19.70
2017-06-18T11:10:25.751Z,20.40
2017-06-18T11:12:56.794Z,20.20
2017-06-18T11:15:28.014Z,21.70
2017-06-18T11:17:58.728Z,22.70
2017-06-18T11:20:29.680Z,23.90
2017-06-18T11:23:00.302Z,24.20
2017-06-18T11:25:31.828Z,26.30
2017-06-18T11:28:02.397Z,27.00
2017-06-18T11:30:33.465Z,24.80
2017-06-18T11:33:04.241Z,25.30
2017-06-18T11:35:35.414Z,25.70
2017-06-18T11:38:06.160Z,23.90
2017-06-18T11:40:37.124Z,23.70
2017-06-18T11:43:07.694Z,23.90
2017-06-18T11:45:38.164Z,24.90
2017-06-18T11:48:10.730Z,25.90
2017-06-18T11:50:41.156Z,23.70
2017-06-18T11:53:11.802Z,22.20
2017-06-18T11:55:43.338Z,21.40
2017-06-18T11:58:14.077Z,19.50
2017-06-18T12:00:45.416Z,19.00
2017-06-18T12:03:15.989Z,20.70
2017-06-18T12:05:45.959Z,20.10
2017-06-18T12:08:17.409Z,18.70
2017-06-18T12:10:49.045Z,20.60
2017-06-18T12:13:19.028Z,25.70
2017-06-18T12:15:50.012Z,26.80
2017-06-18T12:18:20.946Z,23.40
2017-06-18T12:20:52.194Z,21.50
2017-06-18T12:23:23.860Z,21.50
2017-06-18T12:25:54.819Z,22.70
2017-06-18T12:28:24.916Z,25.60
2017-06-18T12:30:56.821Z,26.20
2017-06-18T12:33:27.729Z,27.10
2017-06-18T12:35:57.983Z,25.30
2017-06-18T12:38:27.949Z,24.10
2017-06-18T12:40:59.781Z,21.40
2017-06-18T12:43:30.945Z,20.10
2017-06-18T12:46:02.285Z,23.80
2017-06-18T12:48:33.234Z,23.60
2017-06-18T12:51:04.692Z,22.50
2017-06-18T12:53:35.270Z,22.30
2017-06-18T12:56:06.457Z,21.10
2017-06-18T12:58:38.341Z,17.50
2017-06-18T13:01:09.895Z,17.50
2017-06-18T13:03:40.529Z,16.30
2017-06-18T13:06:11.978Z,16.80
2017-06-18T13:08:42.566Z,18.50
2017-06-18T13:11:12.832Z,16.00
2017-06-18T13:13:44.420Z,18.10
2017-06-18T13:16:15.529Z,18.90
2017-06-18T13:18:46.749Z,17.70
2017-06-18T13:21:17.347Z,18.10
2017-06-18T13:23:48.540Z,16.90
2017-06-18T13:26:19.564Z,16.90
2017-06-18T13:28:50.908Z,17.20
2017-06-18T13:31:25.910Z,16.40
2017-06-18T13:33:57.119Z,15.60
2017-06-18T13:36:28.339Z,15.20
2017-06-18T13:38:58.196Z,13.90
2017-06-18T13:41:29.386Z,15.50
2017-06-18T13:43:59.119Z,16.90
2017-06-18T13:46:29.364Z,19.20
2017-06-18T13:48:59.989Z,20.40
2017-06-18T13:51:30.999Z,19.90
2017-06-18T13:54:01.574Z,20.40
2017-06-18T13:56:32.642Z,22.20
2017-06-18T13:59:03.271Z,24.00
2017-06-18T14:01:34.359Z,26.20
2017-06-18T14:04:04.781Z,26.00
2017-06-18T14:06:35.065Z,24.60
2017-06-18T14:09:08.267Z,21.40
2017-06-18T14:11:38.578Z,20.30
2017-06-18T14:14:08.742Z,17.90
2017-06-18T14:16:40.125Z,21.90
2017-06-18T14:19:11.900Z,22.60
2017-06-18T14:21:44.183Z,20.70
2017-06-18T14:24:15.941Z,18.80
2017-06-18T14:26:46.008Z,16.60
2017-06-18T14:29:16.559Z,17.30
2017-06-18T14:31:48.848Z,18.70
2017-06-18T14:34:18.660Z,20.60
2017-06-18T14:36:50.848Z,21.20
2017-06-18T14:39:22.540Z,20.70
2017-06-18T14:41:53.382Z,20.00
2017-06-18T14:44:24.403Z,17.80
2017-06-18T14:46:56.484Z,17.10
2017-06-18T14:49:30.548Z,15.50
2017-06-18T14:52:05.482Z,15.90
2017-06-18T14:54:35.892Z,16.30
2017-06-18T14:57:07.654Z,15.70
2017-06-18T14:59:38.085Z,14.90
2017-06-18T15:02:12.213Z,15.20
2017-06-18T15:04:44.084Z,15.50
2017-06-18T15:07:16.127Z,14.80
2017-06-18T15:09:46.845Z,16.30
2017-06-18T15:12:17.768Z,16.20
2017-06-18T15:14:47.845Z,15.60
2017-06-18T15:17:19.736Z,14.90
2017-06-18T15:19:54.574Z,14.60
2017-06-18T15:22:26.685Z,14.40
2017-06-18T15:24:58.026Z,13.60
2017-06-18T15:27:28.683Z,13.70
2017-06-18T15:29:59.486Z,14.70
2017-06-18T15:32:45.809Z,14.50
2017-06-18T15:35:17.576Z,15.90
2017-06-18T15:37:50.238Z,16.90
2017-06-18T15:40:20.625Z,16.70
2017-06-18T15:42:50.510Z,15.50
2017-06-18T15:45:20.802Z,15.30
2017-06-18T15:47:50.967Z,14.80
2017-06-18T15:50:22.343Z,15.20
2017-06-18T15:52:52.248Z,15.00
2017-06-18T15:55:23.638Z,15.10
2017-06-18T15:57:54.603Z,14.80
2017-06-18T16:00:25.698Z,16.00
2017-06-18T16:02:57.179Z,15.90
2017-06-18T16:05:28.235Z,17.40
2017-06-18T16:07:58.366Z,17.80
2017-06-18T16:10:31.066Z,19.00
2017-06-18T16:13:03.763Z,19.00
2017-06-18T16:15:34.634Z,17.80
2017-06-18T16:18:05.075Z,17.90
2017-06-18T16:20:36.892Z,17.80
2017-06-18T16:23:08.800Z,18.50
2017-06-18T16:25:39.203Z,18.50
2017-06-18T16:28:10.463Z,17.80
2017-06-18T16:30:43.876Z,17.50
2017-06-18T16:33:15.022Z,17.90
2017-06-18T16:35:46.945Z,17.80
2017-06-18T16:38:18.504Z,17.70
2017-06-18T16:40:49.256Z,18.60
2017-06-18T16:43:19.303Z,18.00
2017-06-18T16:45:49.532Z,18.40
2017-06-18T16:48:19.387Z,19.60
2017-06-18T16:50:51.315Z,21.20
2017-06-18T16:53:21.885Z,21.20
2017-06-18T16:55:53.699Z,22.00
2017-06-18T16:58:27.263Z,23.10
2017-06-18T17:01:03.052Z,23.80
2017-06-18T17:03:33.669Z,24.50
2017-06-18T17:06:05.045Z,25.20
2017-06-18T17:08:36.274Z,25.70
2017-06-18T17:11:11.044Z,25.50
2017-06-18T17:13:41.585Z,27.80
2017-06-18T17:16:12.602Z,28.30
2017-06-18T17:18:43.594Z,28.40
2017-06-18T17:21:18.547Z,27.70
2017-06-18T17:23:56.045Z,28.70
2017-06-18T17:26:26.253Z,29.10
2017-06-18T17:28:56.491Z,29.40
2017-06-18T17:31:27.580Z,29.50
2017-06-18T17:33:58.319Z,28.90
2017-06-18T17:36:30.551Z,28.40
2017-06-18T17:39:01.429Z,28.20
2017-06-18T17:41:32.255Z,28.60
2017-06-18T17:44:04.028Z,28.80
2017-06-18T17:46:35.395Z,30.00
2017-06-18T17:49:05.831Z,29.30
2017-06-18T17:51:36.599Z,29.90
2017-06-18T17:54:11.691Z,29.90
2017-06-18T17:56:42.135Z,29.90
2017-06-18T17:59:12.574Z,29.90
2017-06-18T18:01:44.142Z,30.20
2017-06-18T18:04:14.474Z,29.90
2017-06-18T18:06:45.012Z,29.90
2017-06-18T18:09:16.408Z,29.90
2017-06-18T18:11:46.562Z,30.80
2017-06-18T18:14:17.424Z,31.00
2017-06-18T18:16:48.254Z,30.80
2017-06-18T18:19:18.989Z,31.00
2017-06-18T18:21:50.427Z,30.90
2017-06-18T18:24:23.741Z,30.70
2017-06-18T18:26:54.244Z,30.80
2017-06-18T18:29:25.353Z,32.20
2017-06-18T18:31:56.138Z,33.50
2017-06-18T18:34:26.461Z,34.20
2017-06-18T18:36:58.574Z,35.10
2017-06-18T18:39:40.869Z,35.60
2017-06-18T18:42:12.465Z,36.30
2017-06-18T18:44:42.736Z,37.10
2017-06-18T18:47:15.707Z,37.50
2017-06-18T18:49:46.397Z,37.70
2017-06-18T18:52:17.939Z,38.40
2017-06-18T18:54:49.340Z,39.60
2017-06-18T18:57:19.530Z,40.60
2017-06-18T18:59:50.699Z,41.10
2017-06-18T19:02:21.558Z,41.90
2017-06-18T19:04:55.418Z,42.60
2017-06-18T19:07:25.862Z,43.10
2017-06-18T19:09:56.167Z,43.90
2017-06-18T19:12:27.602Z,44.40
2017-06-18T19:14:57.755Z,45.00
2017-06-18T19:17:27.632Z,46.00
2017-06-18T19:19:57.743Z,46.00
2017-06-18T19:22:29.635Z,45.80
2017-06-18T19:25:02.937Z,46.40
2017-06-18T19:27:35.833Z,47.00
2017-06-18T19:30:07.454Z,47.60
2017-06-18T19:32:37.622Z,48.00
2017-06-18T19:35:07.708Z,48.30
2017-06-18T19:37:37.959Z,48.50
2017-06-18T19:40:08.167Z,48.90
2017-06-18T19:42:39.119Z,49.40
2017-06-18T19:45:10.041Z,49.60
2017-06-18T19:47:40.197Z,49.70
2017-06-18T19:50:10.653Z,50.20
2017-06-18T19:52:43.787Z,50.70
2017-06-18T19:55:17.646Z,50.90
2017-06-18T19:57:47.865Z,51.20
2017-06-18T20:00:19.512Z,51.00
2017-06-18T20:02:49.986Z,51.50
2017-06-18T20:05:20.663Z,51.60
2017-06-18T20:07:51.908Z,52.50
2017-06-18T20:10:23.514Z,52.60
2017-06-18T20:12:53.278Z,52.60
2017-06-18T20:15:29.588Z,53.70
2017-06-18T20:17:59.456Z,53.70
2017-06-18T20:20:30.297Z,54.30
2017-06-18T20:23:00.391Z,54.40
2017-06-18T20:25:37.251Z,54.50
2017-06-18T20:28:07.243Z,54.80
2017-06-18T20:30:39.892Z,54.90
2017-06-18T20:33:09.780Z,55.50
2017-06-18T20:35:41.259Z,55.50
2017-06-18T20:38:12.540Z,56.40
2017-06-18T20:40:45.649Z,56.40
2017-06-18T20:43:15.662Z,57.30
2017-06-18T20:45:45.868Z,57.10
2017-06-18T20:48:15.718Z,56.90
2017-06-18T20:50:47.472Z,57.70
2017-06-18T20:53:18.192Z,58.50
2017-06-18T20:55:51.858Z,58.50
2017-06-18T20:58:22.695Z,58.60
2017-06-18T21:00:53.564Z,59.10
2017-06-18T21:03:24.899Z,59.80
2017-06-18T21:05:55.627Z,59.50
2017-06-18T21:08:26.701Z,59.80
2017-06-18T21:10:57.043Z,60.20
2017-06-18T21:13:27.349Z,60.20
2017-06-18T21:15:58.295Z,61.00
2017-06-18T21:18:28.091Z,60.80
2017-06-18T21:20:59.592Z,61.60
2017-06-18T21:23:30.907Z,61.50
2017-06-18T21:26:04.515Z,61.50
2017-06-18T21:28:34.307Z,61.40
2017-06-18T21:31:05.687Z,61.90
2017-06-18T21:33:35.442Z,62.00
2017-06-18T21:36:07.929Z,63.20
2017-06-18T21:38:38.256Z,64.90
2017-06-18T21:41:08.290Z,66.00
2017-06-18T21:43:39.097Z,67.30
2017-06-18T21:46:09.558Z,68.10
2017-06-18T21:48:40.335Z,67.80
2017-06-18T21:51:10.481Z,68.70
2017-06-18T21:53:41.362Z,69.10
2017-06-18T21:56:12.371Z,69.40
2017-06-18T21:58:42.251Z,69.60
2017-06-18T22:01:13.423Z,70.40
2017-06-18T22:03:47.262Z,70.60
2017-06-18T22:06:17.858Z,70.60
2017-06-18T22:08:47.668Z,70.60
2017-06-18T22:11:20.195Z,70.60
2017-06-18T22:13:50.399Z,71.20
2017-06-18T22:16:21.334Z,71.00
2017-06-18T22:18:51.135Z,70.60
2017-06-18T22:21:21.661Z,70.40
2017-06-18T22:23:52.865Z,70.30
2017-06-18T22:26:24.138Z,70.20
2017-06-18T22:28:56.034Z,70.30
2017-06-18T22:31:27.806Z,70.20
2017-06-18T22:33:57.986Z,70.80
2017-06-18T22:36:29.446Z,70.20
2017-06-18T22:39:00.395Z,70.20
2017-06-18T22:41:30.990Z,70.10
2017-06-18T22:44:00.755Z,71.10
2017-06-18T22:46:31.664Z,72.50
2017-06-18T22:49:01.424Z,72.40
2017-06-18T22:51:33.126Z,72.80
2017-06-18T22:54:03.160Z,72.10
2017-06-18T22:56:34.484Z,72.50
2017-06-18T22:59:04.492Z,72.30
2017-06-18T23:01:34.646Z,72.60
2017-06-18T23:04:05.018Z,71.70
2017-06-18T23:06:35.063Z,71.60
2017-06-18T23:09:05.271Z,72.30
2017-06-18T23:11:35.415Z,72.60
2017-06-18T23:14:05.240Z,72.70
2017-06-18T23:16:35.082Z,72.70
2017-06-18T23:19:05.234Z,72.60
2017-06-18T23:21:35.107Z,72.80
2017-06-18T23:24:05.423Z,73.80
2017-06-18T23:26:36.448Z,72.90
2017-06-18T23:29:06.210Z,73.10
2017-06-18T23:31:37.366Z,74.10
2017-06-18T23:34:07.634Z,73.40
2017-06-18T23:36:37.746Z,74.00
2017-06-18T23:39:08.615Z,74.20
2017-06-18T23:41:38.608Z,73.80
2017-06-18T23:44:08.404Z,73.30
2017-06-18T23:46:38.700Z,73.50
2017-06-18T23:49:08.445Z,73.60
2017-06-18T23:51:39.303Z,73.60
2017-06-18T23:54:12.069Z,73.80
2017-06-18T23:56:42.258Z,74.10
2017-06-18T23:59:12.469Z,74.20
